PSA1224 KOAK-KBUR
Flight info
| Callsign | PSA1224 |
|---|---|
| Flight time | 0h 55m |
| Altitude | 31000 |
| Route | SKYL1 WAGES EBAYE AVE FIM FERN7 |
| Aircraft | B722/M-SDFGHRWY/C |
Departure
| Time | 2026-05-05 17:10 |
|---|---|
| Airport | San Francisco Bay Oakland International Airport (KOAK) |
Arrival
| Time | 2026-05-05 18:06 |
|---|---|
| Airport | Hollywood Burbank/Bob Hope Airport (KBUR) |
| Time | Latitude | Longitude | Altitude | Speed | Heading |
|---|---|---|---|---|---|
| 2026-05-05 17:07 | 37.70816 | -122.21654 | 18 ft | 17 kts | 226° |
| 2026-05-05 17:08 | 37.70706 | -122.21768 | 15 ft | 22 kts | 211° |
| 2026-05-05 17:08 | 37.70611 | -122.21741 | 14 ft | 15 kts | 126° |
| 2026-05-05 17:08 | 37.70539 | -122.21631 | 14 ft | 17 kts | 133° |
| 2026-05-05 17:08 | 37.70452 | -122.21509 | 12 ft | 21 kts | 131° |
| 2026-05-05 17:09 | 37.70342 | -122.21389 | 13 ft | 20 kts | 158° |
| 2026-05-05 17:09 | 37.70219 | -122.21379 | 12 ft | 18 kts | 211° |
| 2026-05-05 17:09 | 37.70182 | -122.21477 | 10 ft | 9 kts | 303° |
| 2026-05-05 17:09 | 37.70293 | -122.21645 | 8 ft | 50 kts | 308° |
| 2026-05-05 17:10 | 37.70650 | -122.22177 | 10 ft | 108 kts | 313° |
| 2026-05-05 17:10 | 37.71207 | -122.23020 | 34 ft | 144 kts | 311° |
| 2026-05-05 17:10 | 37.71916 | -122.23977 | 429 ft | 154 kts | 310° |
| 2026-05-05 17:10 | 37.72600 | -122.24998 | 1101 ft | 152 kts | 311° |
| 2026-05-05 17:11 | 37.73341 | -122.26024 | 1544 ft | 164 kts | 316° |
| 2026-05-05 17:11 | 37.74173 | -122.26964 | 2073 ft | 167 kts | 311° |
| 2026-05-05 17:11 | 37.74919 | -122.28078 | 2767 ft | 165 kts | 310° |
| 2026-05-05 17:11 | 37.75656 | -122.29185 | 3446 ft | 165 kts | 310° |
| 2026-05-05 17:12 | 37.76388 | -122.30360 | 3950 ft | 175 kts | 303° |
| 2026-05-05 17:12 | 37.76600 | -122.31885 | 4397 ft | 191 kts | 255° |
| 2026-05-05 17:12 | 37.75751 | -122.33251 | 4939 ft | 210 kts | 217° |
| 2026-05-05 17:12 | 37.74471 | -122.34279 | 5522 ft | 226 kts | 214° |
| 2026-05-05 17:13 | 37.73093 | -122.35377 | 6076 ft | 245 kts | 214° |
| 2026-05-05 17:13 | 37.71590 | -122.36585 | 6608 ft | 267 kts | 213° |
| 2026-05-05 17:13 | 37.69982 | -122.37880 | 7125 ft | 289 kts | 213° |
| 2026-05-05 17:13 | 37.68222 | -122.39299 | 7647 ft | 312 kts | 213° |
| 2026-05-05 17:14 | 37.66391 | -122.40774 | 8620 ft | 314 kts | 213° |
| 2026-05-05 17:14 | 37.64606 | -122.42223 | 9347 ft | 325 kts | 214° |
| 2026-05-05 17:14 | 37.62661 | -122.43752 | 10163 ft | 334 kts | 207° |
| 2026-05-05 17:14 | 37.60457 | -122.44483 | 10994 ft | 338 kts | 183° |
| 2026-05-05 17:15 | 37.58100 | -122.44510 | 11861 ft | 342 kts | 175° |
| 2026-05-05 17:15 | 37.55709 | -122.44299 | 12712 ft | 345 kts | 169° |
| 2026-05-05 17:15 | 37.53477 | -122.43276 | 13520 ft | 342 kts | 142° |
| 2026-05-05 17:15 | 37.51635 | -122.41408 | 14360 ft | 339 kts | 131° |
| 2026-05-05 17:16 | 37.49966 | -122.39292 | 15089 ft | 343 kts | 129° |
| 2026-05-05 17:16 | 37.48882 | -122.37870 | 15552 ft | 346 kts | 128° |
| 2026-05-05 17:16 | 37.47186 | -122.35663 | 16335 ft | 350 kts | 131° |
| 2026-05-05 17:16 | 37.45137 | -122.33926 | 17039 ft | 365 kts | 156° |
| 2026-05-05 17:17 | 37.42621 | -122.33425 | 17790 ft | 373 kts | 184° |
| 2026-05-05 17:17 | 37.40149 | -122.34229 | 18465 ft | 377 kts | 204° |
| 2026-05-05 17:17 | 37.37862 | -122.35706 | 19025 ft | 379 kts | 212° |
| 2026-05-05 17:17 | 37.35607 | -122.37456 | 19607 ft | 383 kts | 213° |
| 2026-05-05 17:18 | 37.33332 | -122.39247 | 20179 ft | 388 kts | 213° |
| 2026-05-05 17:18 | 37.31034 | -122.41066 | 20754 ft | 393 kts | 213° |
| 2026-05-05 17:18 | 37.28792 | -122.42858 | 21313 ft | 397 kts | 213° |
| 2026-05-05 17:18 | 37.26453 | -122.44740 | 21859 ft | 401 kts | 213° |
| 2026-05-05 17:19 | 37.24094 | -122.46652 | 22418 ft | 406 kts | 213° |
| 2026-05-05 17:19 | 37.21715 | -122.48590 | 22966 ft | 410 kts | 213° |
| 2026-05-05 17:19 | 37.19311 | -122.50559 | 23519 ft | 415 kts | 213° |
| 2026-05-05 17:19 | 37.16772 | -122.52291 | 23923 ft | 418 kts | 197° |
| 2026-05-05 17:20 | 37.13928 | -122.52813 | 24388 ft | 412 kts | 172° |
| 2026-05-05 17:20 | 37.11208 | -122.51939 | 24856 ft | 400 kts | 148° |
| 2026-05-05 17:20 | 37.08855 | -122.50142 | 25316 ft | 394 kts | 137° |
| 2026-05-05 17:20 | 37.06713 | -122.48005 | 25780 ft | 393 kts | 133° |
| 2026-05-05 17:21 | 37.04723 | -122.45681 | 26228 ft | 389 kts | 124° |
| 2026-05-05 17:21 | 37.03063 | -122.43036 | 26690 ft | 385 kts | 117° |
| 2026-05-05 17:21 | 37.01604 | -122.40279 | 27164 ft | 385 kts | 116° |
| 2026-05-05 17:22 | 36.98672 | -122.34612 | 28062 ft | 389 kts | 115° |
| 2026-05-05 17:22 | 36.97201 | -122.31759 | 28530 ft | 391 kts | 115° |
| 2026-05-05 17:22 | 36.95721 | -122.28899 | 28969 ft | 393 kts | 115° |
| 2026-05-05 17:22 | 36.94231 | -122.26021 | 29381 ft | 395 kts | 115° |
| 2026-05-05 17:23 | 36.92736 | -122.23137 | 29794 ft | 397 kts | 115° |
| 2026-05-05 17:23 | 36.91229 | -122.20237 | 30213 ft | 399 kts | 115° |
| 2026-05-05 17:23 | 36.89710 | -122.17327 | 30566 ft | 400 kts | 115° |
| 2026-05-05 17:23 | 36.88184 | -122.14411 | 30909 ft | 402 kts | 115° |
| 2026-05-05 17:24 | 36.86666 | -122.11518 | 31084 ft | 408 kts | 115° |
| 2026-05-05 17:24 | 36.83587 | -122.05625 | 31101 ft | 417 kts | 115° |
| 2026-05-05 17:25 | 36.80362 | -121.99464 | 31110 ft | 433 kts | 115° |
| 2026-05-05 17:25 | 36.77131 | -121.93199 | 31101 ft | 451 kts | 115° |
| 2026-05-05 17:26 | 36.73712 | -121.86590 | 31105 ft | 459 kts | 116° |
| 2026-05-05 17:26 | 36.70194 | -121.79976 | 31096 ft | 457 kts | 116° |
| 2026-05-05 17:27 | 36.66703 | -121.73379 | 31097 ft | 456 kts | 116° |
| 2026-05-05 17:27 | 36.63260 | -121.66826 | 31095 ft | 456 kts | 116° |
| 2026-05-05 17:28 | 36.59732 | -121.60240 | 31097 ft | 458 kts | 116° |
| 2026-05-05 17:28 | 36.56213 | -121.53651 | 31096 ft | 457 kts | 116° |
| 2026-05-05 17:29 | 36.52711 | -121.47055 | 31098 ft | 457 kts | 116° |
| 2026-05-05 17:29 | 36.49219 | -121.40579 | 31090 ft | 457 kts | 116° |
| 2026-05-05 17:30 | 36.45686 | -121.33997 | 31089 ft | 458 kts | 116° |
| 2026-05-05 17:30 | 36.42179 | -121.27453 | 31083 ft | 458 kts | 116° |
| 2026-05-05 17:31 | 36.38622 | -121.20888 | 31091 ft | 460 kts | 116° |
| 2026-05-05 17:31 | 36.35069 | -121.14322 | 31082 ft | 457 kts | 116° |
| 2026-05-05 17:32 | 36.31537 | -121.07759 | 31083 ft | 458 kts | 115° |
| 2026-05-05 17:32 | 36.28043 | -121.01230 | 31078 ft | 457 kts | 115° |
| 2026-05-05 17:33 | 36.24537 | -120.94659 | 31080 ft | 458 kts | 115° |
| 2026-05-05 17:33 | 36.21018 | -120.88126 | 31090 ft | 457 kts | 115° |
| 2026-05-05 17:34 | 36.17485 | -120.81577 | 31068 ft | 457 kts | 115° |
| 2026-05-05 17:34 | 36.14042 | -120.75154 | 31078 ft | 458 kts | 116° |
| 2026-05-05 17:35 | 36.10448 | -120.68661 | 31079 ft | 458 kts | 116° |
| 2026-05-05 17:35 | 36.06850 | -120.62163 | 31078 ft | 459 kts | 116° |
| 2026-05-05 17:36 | 36.03192 | -120.55648 | 31061 ft | 461 kts | 116° |
| 2026-05-05 17:36 | 35.99574 | -120.49233 | 31063 ft | 470 kts | 116° |
| 2026-05-05 17:37 | 35.95861 | -120.42614 | 31066 ft | 469 kts | 116° |
| 2026-05-05 17:37 | 35.92178 | -120.35981 | 31070 ft | 472 kts | 116° |
| 2026-05-05 17:38 | 35.88494 | -120.29279 | 31071 ft | 471 kts | 116° |
| 2026-05-05 17:38 | 35.84499 | -120.22814 | 31240 ft | 479 kts | 124° |
| 2026-05-05 17:38 | 35.82182 | -120.19811 | 31059 ft | 489 kts | 126° |
| 2026-05-05 17:39 | 35.79835 | -120.16818 | 31009 ft | 483 kts | 126° |
| 2026-05-05 17:39 | 35.75227 | -120.10972 | 31090 ft | 486 kts | 127° |
| 2026-05-05 17:40 | 35.70528 | -120.05046 | 31062 ft | 483 kts | 127° |
| 2026-05-05 17:40 | 35.65851 | -119.99128 | 31067 ft | 483 kts | 127° |
| 2026-05-05 17:41 | 35.60433 | -119.94086 | 31070 ft | 508 kts | 152° |
| 2026-05-05 17:41 | 35.53956 | -119.90727 | 31068 ft | 497 kts | 140° |
| 2026-05-05 17:42 | 35.48332 | -119.85839 | 31072 ft | 495 kts | 137° |
| 2026-05-05 17:42 | 35.42731 | -119.81043 | 31068 ft | 496 kts | 140° |
| 2026-05-05 17:43 | 35.36964 | -119.76347 | 31060 ft | 498 kts | 141° |
| 2026-05-05 17:43 | 35.31241 | -119.71755 | 31056 ft | 498 kts | 141° |
| 2026-05-05 17:44 | 35.25392 | -119.67219 | 31060 ft | 499 kts | 142° |
| 2026-05-05 17:44 | 35.19546 | -119.62713 | 31050 ft | 500 kts | 143° |
| 2026-05-05 17:45 | 35.13655 | -119.58182 | 31053 ft | 500 kts | 142° |
| 2026-05-05 17:45 | 35.07888 | -119.53738 | 31058 ft | 499 kts | 143° |
| 2026-05-05 17:46 | 35.02000 | -119.49229 | 31048 ft | 500 kts | 143° |
| 2026-05-05 17:46 | 34.96288 | -119.44851 | 30854 ft | 502 kts | 143° |
| 2026-05-05 17:46 | 34.93334 | -119.42592 | 30487 ft | 497 kts | 143° |
| 2026-05-05 17:47 | 34.90407 | -119.40377 | 30121 ft | 494 kts | 143° |
| 2026-05-05 17:47 | 34.87496 | -119.38183 | 29697 ft | 491 kts | 144° |
| 2026-05-05 17:47 | 34.84614 | -119.36022 | 29277 ft | 487 kts | 144° |
| 2026-05-05 17:47 | 34.81738 | -119.33868 | 28857 ft | 484 kts | 144° |
| 2026-05-05 17:48 | 34.78982 | -119.31575 | 28434 ft | 477 kts | 137° |
| 2026-05-05 17:48 | 34.76513 | -119.28919 | 28036 ft | 471 kts | 132° |
| 2026-05-05 17:48 | 34.74187 | -119.26131 | 27637 ft | 468 kts | 130° |
| 2026-05-05 17:48 | 34.71915 | -119.23321 | 27221 ft | 464 kts | 130° |
| 2026-05-05 17:49 | 34.69652 | -119.20538 | 26776 ft | 461 kts | 131° |
| 2026-05-05 17:49 | 34.67380 | -119.17805 | 26341 ft | 459 kts | 132° |
| 2026-05-05 17:49 | 34.65083 | -119.15125 | 25905 ft | 457 kts | 133° |
| 2026-05-05 17:49 | 34.62762 | -119.12512 | 25494 ft | 454 kts | 134° |
| 2026-05-05 17:50 | 34.60402 | -119.09965 | 25079 ft | 453 kts | 136° |
| 2026-05-05 17:50 | 34.58022 | -119.07482 | 24662 ft | 450 kts | 137° |
| 2026-05-05 17:50 | 34.55627 | -119.05106 | 24267 ft | 449 kts | 139° |
| 2026-05-05 17:50 | 34.53142 | -119.02824 | 23862 ft | 447 kts | 141° |
| 2026-05-05 17:51 | 34.50502 | -119.00876 | 23409 ft | 444 kts | 156° |
| 2026-05-05 17:51 | 34.47515 | -119.00063 | 22929 ft | 441 kts | 176° |
| 2026-05-05 17:51 | 34.44465 | -119.00177 | 22492 ft | 437 kts | 186° |
| 2026-05-05 17:51 | 34.41469 | -119.00697 | 22052 ft | 432 kts | 190° |
| 2026-05-05 17:52 | 34.38513 | -119.01329 | 21615 ft | 430 kts | 191° |
| 2026-05-05 17:52 | 34.35582 | -119.01952 | 21147 ft | 427 kts | 191° |
| 2026-05-05 17:52 | 34.32693 | -119.02563 | 20618 ft | 422 kts | 191° |
| 2026-05-05 17:52 | 34.29818 | -119.03165 | 20087 ft | 419 kts | 191° |
| 2026-05-05 17:53 | 34.26968 | -119.03757 | 19572 ft | 412 kts | 191° |
| 2026-05-05 17:53 | 34.24154 | -119.04336 | 19073 ft | 408 kts | 191° |
| 2026-05-05 17:53 | 34.21466 | -119.04885 | 18581 ft | 404 kts | 191° |
| 2026-05-05 17:53 | 34.18737 | -119.05437 | 18057 ft | 401 kts | 191° |
| 2026-05-05 17:54 | 34.15995 | -119.05988 | 17495 ft | 398 kts | 191° |
| 2026-05-05 17:54 | 34.13272 | -119.06533 | 16954 ft | 395 kts | 191° |
| 2026-05-05 17:54 | 34.10566 | -119.07071 | 16408 ft | 393 kts | 191° |
| 2026-05-05 17:54 | 34.07877 | -119.07601 | 15878 ft | 390 kts | 191° |
| 2026-05-05 17:55 | 34.05209 | -119.08122 | 15353 ft | 387 kts | 191° |
| 2026-05-05 17:55 | 34.02545 | -119.08477 | 14824 ft | 386 kts | 180° |
| 2026-05-05 17:55 | 33.99943 | -119.07767 | 14283 ft | 386 kts | 155° |
| 2026-05-05 17:55 | 33.97805 | -119.05854 | 13769 ft | 385 kts | 131° |
| 2026-05-05 17:56 | 33.96506 | -119.03081 | 13208 ft | 380 kts | 106° |
| 2026-05-05 17:56 | 33.96268 | -118.99962 | 12670 ft | 373 kts | 81° |
| 2026-05-05 17:56 | 33.97105 | -118.97085 | 12142 ft | 360 kts | 56° |
| 2026-05-05 17:56 | 33.98804 | -118.94983 | 11629 ft | 345 kts | 33° |
| 2026-05-05 17:57 | 34.00820 | -118.93575 | 11128 ft | 328 kts | 24° |
| 2026-05-05 17:57 | 34.02809 | -118.92490 | 10983 ft | 295 kts | 22° |
| 2026-05-05 17:57 | 34.04582 | -118.91542 | 10989 ft | 287 kts | 22° |
| 2026-05-05 17:57 | 34.06427 | -118.90549 | 10539 ft | 293 kts | 22° |
| 2026-05-05 17:58 | 34.08291 | -118.89546 | 10043 ft | 293 kts | 22° |
| 2026-05-05 17:58 | 34.10121 | -118.88566 | 9558 ft | 284 kts | 22° |
| 2026-05-05 17:58 | 34.11953 | -118.87606 | 8864 ft | 290 kts | 22° |
| 2026-05-05 17:58 | 34.13789 | -118.86643 | 8429 ft | 285 kts | 22° |
| 2026-05-05 17:59 | 34.15581 | -118.85620 | 7958 ft | 285 kts | 31° |
| 2026-05-05 17:59 | 34.16947 | -118.83915 | 7421 ft | 287 kts | 59° |
| 2026-05-05 17:59 | 34.17733 | -118.81714 | 6988 ft | 285 kts | 70° |
| 2026-05-05 17:59 | 34.18330 | -118.79476 | 6178 ft | 280 kts | 71° |
| 2026-05-05 18:00 | 34.18927 | -118.77269 | 5259 ft | 280 kts | 70° |
| 2026-05-05 18:00 | 34.19548 | -118.75011 | 4681 ft | 282 kts | 71° |
| 2026-05-05 18:00 | 34.20169 | -118.72763 | 4306 ft | 277 kts | 71° |
| 2026-05-05 18:00 | 34.20613 | -118.70546 | 3934 ft | 273 kts | 86° |
| 2026-05-05 18:01 | 34.20584 | -118.68315 | 3790 ft | 250 kts | 92° |
| 2026-05-05 18:01 | 34.20444 | -118.66287 | 3695 ft | 236 kts | 97° |
| 2026-05-05 18:01 | 34.20284 | -118.64325 | 3511 ft | 234 kts | 95° |
| 2026-05-05 18:01 | 34.20131 | -118.62480 | 3597 ft | 219 kts | 94° |
| 2026-05-05 18:02 | 34.20018 | -118.60633 | 3404 ft | 218 kts | 91° |
| 2026-05-05 18:02 | 34.19948 | -118.59367 | 3176 ft | 222 kts | 92° |
| 2026-05-05 18:02 | 34.19917 | -118.57531 | 2927 ft | 217 kts | 85° |
| 2026-05-05 18:02 | 34.19869 | -118.55787 | 2706 ft | 203 kts | 93° |
| 2026-05-05 18:03 | 34.19782 | -118.54104 | 2713 ft | 202 kts | 92° |
| 2026-05-05 18:03 | 34.19715 | -118.51866 | 2971 ft | 205 kts | 88° |
| 2026-05-05 18:03 | 34.19748 | -118.50735 | 3183 ft | 200 kts | 90° |
| 2026-05-05 18:03 | 34.19690 | -118.49023 | 3035 ft | 204 kts | 93° |
| 2026-05-05 18:04 | 34.19669 | -118.47363 | 2835 ft | 186 kts | 90° |
| 2026-05-05 18:04 | 34.19698 | -118.45929 | 2776 ft | 154 kts | 87° |
| 2026-05-05 18:04 | 34.19780 | -118.44675 | 2629 ft | 153 kts | 84° |
| 2026-05-05 18:04 | 34.19921 | -118.43437 | 2276 ft | 144 kts | 86° |
| 2026-05-05 18:05 | 34.19900 | -118.42270 | 1859 ft | 139 kts | 95° |
| 2026-05-05 18:05 | 34.19843 | -118.41085 | 1482 ft | 147 kts | 93° |
| 2026-05-05 18:05 | 34.19826 | -118.39821 | 1388 ft | 155 kts | 90° |
| 2026-05-05 18:05 | 34.19826 | -118.38592 | 1175 ft | 138 kts | 92° |
| 2026-05-05 18:06 | 34.19801 | -118.37453 | 870 ft | 137 kts | 91° |
| 2026-05-05 18:06 | 34.19785 | -118.36680 | 754 ft | 129 kts | 78° |
| 2026-05-05 18:06 | 34.19780 | -118.35703 | 733 ft | 46 kts | 94° |
| 2026-05-05 18:06 | 34.19764 | -118.35343 | 726 ft | 32 kts | 94° |
| 2026-05-05 18:07 | 34.19704 | -118.35241 | 726 ft | 9 kts | 180° |
| 2026-05-05 18:07 | 34.19695 | -118.35241 | 725 ft | 0 kts | 181° |